LEBZ/BJZ METAR and TAF weather

Enter ICAO airport designator
Station Type Date Time Source
LEBZ METAR 2019/05/23 19:00 UTC NOAA

LEBZ 231900Z 28016KT CAVOK 24/12 Q1015


Station Type Date Time Source
LEBZ Decoded METAR 2019/05/23 19:00 UTC NOAA

Badajoz / Talavera La Real, Spain (LEBZ) 38-53N 006-49W 192M
May 23, 2019 - 03:00 PM EDT / 2019.05.23 1900 UTC
Wind: from the W (280 degrees) at 18 MPH (16 KT):0
Visibility: greater than 7 mile(s):0
Temperature: 75 F (24 C)
Dew Point: 53 F (12 C)
Relative Humidity: 46%
Pressure (altimeter): 29.97 in. Hg (1015 hPa)
ob: LEBZ 231900Z 28016KT CAVOK 24/12 Q1015
cycle: 19

Station Type Date Time Source
LEBZ TAF 2019/05/23 18:27 UTC NOAA

TAF LEBZ 231700Z 2318/2418 28010KT CAVOK TX31/2415Z TN14/2405Z
BECMG 2408/2410 34012KT

Example: see airport list